Terminal Aerodrome Forecast
Issued by NWS Charleston, WV

Current Version | Previous Version | Text Only | Print | Product List | Glossary Off
Versions: 1 2 3 4 5 6 7 8 9 10 11 12 13 14 15 16 17 18 19 20 21 22 23 24 25 26 27

766
FTUS41 KRLX 241739
TAFCRW
TAF
KCRW 241739Z 2418/2518 35004KT P6SM SCT050
     FM241900 34005KT P6SM BKN050
     FM250000 02002KT P6SM SCT050
     FM250600 00000KT 6SM BR SCT250
     FM250800 00000KT 4SM BR FEW250
     FM251000 00000KT 1SM BR BKN001
     FM251300 00000KT 5SM BR SCT002
     FM251400 VRB03KT P6SM FEW200=

USA.gov is the U.S. government's official web portal to all federal, state and local government web resources and services.